sensor_id;sensor_type;location;lat;lon;timestamp;P1;durP1;ratioP1;P2;durP2;ratioP2
12980;SDS011;6555;50.468;8.480;2022-07-31T00:51:02;1.00;;;0.90;;
12980;SDS011;6555;50.468;8.480;2022-07-31T00:56:05;1.10;;;1.10;;
12980;SDS011;6555;50.468;8.480;2022-07-31T01:01:08;1.10;;;0.82;;
12980;SDS011;6555;50.468;8.480;2022-07-31T01:06:13;1.23;;;1.13;;
12980;SDS011;6555;50.468;8.480;2022-07-31T01:11:18;1.30;;;1.02;;
12980;SDS011;6555;50.468;8.480;2022-07-31T01:16:26;1.98;;;1.00;;
12980;SDS011;6555;50.468;8.480;2022-07-31T01:21:37;1.83;;;1.30;;
12980;SDS011;6555;50.468;8.480;2022-07-31T01:26:46;1.30;;;1.20;;
12980;SDS011;6555;50.468;8.480;2022-07-31T01:31:57;1.13;;;1.02;;
12980;SDS011;6555;50.468;8.480;2022-07-31T01:37:05;1.10;;;1.00;;
12980;SDS011;6555;50.468;8.480;2022-07-31T01:42:15;0.98;;;0.90;;
12980;SDS011;6555;50.468;8.480;2022-07-31T01:47:22;2.00;;;1.00;;
12980;SDS011;6555;50.468;8.480;2022-07-31T01:52:28;2.15;;;0.90;;
12980;SDS011;6555;50.468;8.480;2022-07-31T01:57:32;1.17;;;1.00;;
12980;SDS011;6555;50.468;8.480;2022-07-31T02:02:40;1.48;;;1.20;;
12980;SDS011;6555;50.468;8.480;2022-07-31T02:07:45;0.98;;;0.98;;
12980;SDS011;6555;50.468;8.480;2022-07-31T02:12:50;0.90;;;0.90;;
12980;SDS011;6555;50.468;8.480;2022-07-31T02:17:55;1.50;;;1.10;;
12980;SDS011;6555;50.468;8.480;2022-07-31T02:23:05;2.45;;;0.98;;
12980;SDS011;6555;50.468;8.480;2022-07-31T02:28:09;1.48;;;1.08;;
12980;SDS011;6555;50.468;8.480;2022-07-31T02:33:17;1.02;;;0.93;;
12980;SDS011;6555;50.468;8.480;2022-07-31T02:38:22;1.17;;;1.05;;
12980;SDS011;6555;50.468;8.480;2022-07-31T02:43:30;1.20;;;1.10;;
12980;SDS011;6555;50.468;8.480;2022-07-31T02:48:57;0.90;;;0.90;;
12980;SDS011;6555;50.468;8.480;2022-07-31T02:54:00;1.30;;;1.00;;
12980;SDS011;6555;50.468;8.480;2022-07-31T02:59:04;2.47;;;1.30;;
12980;SDS011;6555;50.468;8.480;2022-07-31T03:04:23;0.90;;;0.90;;
12980;SDS011;6555;50.468;8.480;2022-07-31T03:09:27;0.88;;;0.88;;
12980;SDS011;6555;50.468;8.480;2022-07-31T03:14:51;0.90;;;0.90;;
12980;SDS011;6555;50.468;8.480;2022-07-31T03:19:58;1.35;;;1.08;;
12980;SDS011;6555;50.468;8.480;2022-07-31T03:25:01;1.13;;;1.02;;
12980;SDS011;6555;50.468;8.480;2022-07-31T03:30:13;0.80;;;0.80;;
12980;SDS011;6555;50.468;8.480;2022-07-31T03:35:21;1.17;;;1.08;;
12980;SDS011;6555;50.468;8.480;2022-07-31T03:40:25;1.02;;;0.82;;
12980;SDS011;6555;50.468;8.480;2022-07-31T03:45:28;0.85;;;0.85;;
12980;SDS011;6555;50.468;8.480;2022-07-31T03:50:34;0.95;;;0.90;;
12980;SDS011;6555;50.468;8.480;2022-07-31T03:55:38;1.73;;;0.90;;
12980;SDS011;6555;50.468;8.480;2022-07-31T04:00:43;0.95;;;0.95;;
12980;SDS011;6555;50.468;8.480;2022-07-31T04:05:50;1.17;;;1.00;;
12980;SDS011;6555;50.468;8.480;2022-07-31T04:10:53;0.95;;;0.95;;
12980;SDS011;6555;50.468;8.480;2022-07-31T04:15:57;1.02;;;1.00;;
12980;SDS011;6555;50.468;8.480;2022-07-31T04:21:02;1.65;;;0.90;;
12980;SDS011;6555;50.468;8.480;2022-07-31T04:26:07;0.93;;;0.90;;
12980;SDS011;6555;50.468;8.480;2022-07-31T04:31:27;0.85;;;0.85;;
12980;SDS011;6555;50.468;8.480;2022-07-31T04:36:32;1.02;;;0.88;;
12980;SDS011;6555;50.468;8.480;2022-07-31T04:41:35;1.00;;;0.90;;
12980;SDS011;6555;50.468;8.480;2022-07-31T04:46:38;1.00;;;1.00;;
12980;SDS011;6555;50.468;8.480;2022-07-31T04:51:45;1.00;;;0.95;;
12980;SDS011;6555;50.468;8.480;2022-07-31T04:56:50;0.98;;;0.88;;
12980;SDS011;6555;50.468;8.480;2022-07-31T05:01:53;1.67;;;1.05;;
12980;SDS011;6555;50.468;8.480;2022-07-31T05:06:59;1.08;;;1.00;;
12980;SDS011;6555;50.468;8.480;2022-07-31T05:12:02;1.13;;;1.02;;
12980;SDS011;6555;50.468;8.480;2022-07-31T05:17:06;0.70;;;0.70;;
12980;SDS011;6555;50.468;8.480;2022-07-31T05:22:32;0.98;;;0.95;;
12980;SDS011;6555;50.468;8.480;2022-07-31T05:28:05;0.95;;;0.95;;
12980;SDS011;6555;50.468;8.480;2022-07-31T05:33:10;0.95;;;0.93;;
12980;SDS011;6555;50.468;8.480;2022-07-31T05:38:18;1.50;;;0.93;;
12980;SDS011;6555;50.468;8.480;2022-07-31T05:43:44;1.17;;;0.88;;
12980;SDS011;6555;50.468;8.480;2022-07-31T05:48:52;1.15;;;1.05;;
12980;SDS011;6555;50.468;8.480;2022-07-31T05:53:57;1.23;;;1.00;;
12980;SDS011;6555;50.468;8.480;2022-07-31T05:59:18;0.90;;;0.90;;
12980;SDS011;6555;50.468;8.480;2022-07-31T06:04:22;1.15;;;1.05;;
12980;SDS011;6555;50.468;8.480;2022-07-31T06:09:26;2.75;;;0.90;;
12980;SDS011;6555;50.468;8.480;2022-07-31T06:14:29;0.90;;;0.90;;
12980;SDS011;6555;50.468;8.480;2022-07-31T06:20:05;0.70;;;0.70;;
12980;SDS011;6555;50.468;8.480;2022-07-31T06:25:11;1.50;;;1.08;;
12980;SDS011;6555;50.468;8.480;2022-07-31T06:30:15;1.23;;;1.10;;
12980;SDS011;6555;50.468;8.480;2022-07-31T06:35:18;1.52;;;1.10;;
12980;SDS011;6555;50.468;8.480;2022-07-31T06:40:42;0.90;;;0.90;;
12980;SDS011;6555;50.468;8.480;2022-07-31T06:46:14;0.93;;;0.93;;
12980;SDS011;6555;50.468;8.480;2022-07-31T06:51:40;1.13;;;1.02;;
12980;SDS011;6555;50.468;8.480;2022-07-31T06:56:45;1.20;;;1.10;;
12980;SDS011;6555;50.468;8.480;2022-07-31T07:01:48;1.20;;;1.10;;
12980;SDS011;6555;50.468;8.480;2022-07-31T07:06:51;1.20;;;1.00;;
12980;SDS011;6555;50.468;8.480;2022-07-31T07:11:55;0.80;;;0.80;;
12980;SDS011;6555;50.468;8.480;2022-07-31T07:17:01;1.27;;;1.08;;
12980;SDS011;6555;50.468;8.480;2022-07-31T07:22:07;1.30;;;1.20;;
12980;SDS011;6555;50.468;8.480;2022-07-31T07:27:12;1.80;;;1.00;;
12980;SDS011;6555;50.468;8.480;2022-07-31T07:32:15;1.20;;;1.10;;
12980;SDS011;6555;50.468;8.480;2022-07-31T07:37:18;1.10;;;1.00;;
12980;SDS011;6555;50.468;8.480;2022-07-31T07:42:23;1.80;;;1.30;;
12980;SDS011;6555;50.468;8.480;2022-07-31T07:47:26;0.73;;;0.73;;
12980;SDS011;6555;50.468;8.480;2022-07-31T07:52:49;1.20;;;1.10;;
12980;SDS011;6555;50.468;8.480;2022-07-31T07:58:31;1.27;;;1.00;;
12980;SDS011;6555;50.468;8.480;2022-07-31T08:04:13;0.95;;;0.90;;
12980;SDS011;6555;50.468;8.480;2022-07-31T08:09:16;1.00;;;1.00;;
12980;SDS011;6555;50.468;8.480;2022-07-31T08:14:44;1.05;;;0.95;;
12980;SDS011;6555;50.468;8.480;2022-07-31T08:20:23;1.88;;;1.15;;
12980;SDS011;6555;50.468;8.480;2022-07-31T08:25:26;1.30;;;1.20;;
12980;SDS011;6555;50.468;8.480;2022-07-31T08:30:34;0.93;;;0.93;;
12980;SDS011;6555;50.468;8.480;2022-07-31T08:35:37;0.82;;;0.82;;
12980;SDS011;6555;50.468;8.480;2022-07-31T08:40:45;1.10;;;1.00;;
12980;SDS011;6555;50.468;8.480;2022-07-31T08:45:51;0.82;;;0.82;;
12980;SDS011;6555;50.468;8.480;2022-07-31T08:51:01;0.70;;;0.70;;
12980;SDS011;6555;50.468;8.480;2022-07-31T08:56:28;1.27;;;1.10;;
12980;SDS011;6555;50.468;8.480;2022-07-31T09:01:36;1.85;;;1.20;;
12980;SDS011;6555;50.468;8.480;2022-07-31T09:06:40;2.50;;;1.10;;
12980;SDS011;6555;50.468;8.480;2022-07-31T09:11:47;1.30;;;1.20;;
12980;SDS011;6555;50.468;8.480;2022-07-31T09:17:10;1.65;;;1.20;;
12980;SDS011;6555;50.468;8.480;2022-07-31T09:22:20;1.13;;;1.00;;
12980;SDS011;6555;50.468;8.480;2022-07-31T09:27:26;1.20;;;1.10;;
12980;SDS011;6555;50.468;8.480;2022-07-31T09:32:31;1.17;;;1.08;;
12980;SDS011;6555;50.468;8.480;2022-07-31T09:37:45;1.30;;;1.15;;
12980;SDS011;6555;50.468;8.480;2022-07-31T09:43:12;1.20;;;1.10;;
12980;SDS011;6555;50.468;8.480;2022-07-31T09:48:17;1.30;;;1.20;;
12980;SDS011;6555;50.468;8.480;2022-07-31T09:53:37;1.35;;;1.10;;
12980;SDS011;6555;50.468;8.480;2022-07-31T09:59:04;1.38;;;1.00;;
12980;SDS011;6555;50.468;8.480;2022-07-31T10:04:13;0.90;;;0.90;;
12980;SDS011;6555;50.468;8.480;2022-07-31T10:09:19;0.85;;;0.85;;
12980;SDS011;6555;50.468;8.480;2022-07-31T10:14:43;0.98;;;0.93;;
12980;SDS011;6555;50.468;8.480;2022-07-31T10:19:49;3.17;;;1.20;;
12980;SDS011;6555;50.468;8.480;2022-07-31T10:25:01;1.35;;;1.08;;
12980;SDS011;6555;50.468;8.480;2022-07-31T10:30:05;0.95;;;0.95;;
12980;SDS011;6555;50.468;8.480;2022-07-31T10:35:15;1.00;;;1.00;;
12980;SDS011;6555;50.468;8.480;2022-07-31T10:40:48;1.50;;;1.13;;
12980;SDS011;6555;50.468;8.480;2022-07-31T10:45:57;1.30;;;1.20;;
12980;SDS011;6555;50.468;8.480;2022-07-31T10:51:17;1.02;;;1.00;;
12980;SDS011;6555;50.468;8.480;2022-07-31T10:56:39;0.88;;;0.88;;
12980;SDS011;6555;50.468;8.480;2022-07-31T11:02:00;1.20;;;1.10;;
12980;SDS011;6555;50.468;8.480;2022-07-31T11:07:15;1.20;;;1.10;;
12980;SDS011;6555;50.468;8.480;2022-07-31T11:12:36;1.15;;;1.10;;
12980;SDS011;6555;50.468;8.480;2022-07-31T11:18:11;2.55;;;1.02;;
12980;SDS011;6555;50.468;8.480;2022-07-31T11:23:37;1.20;;;1.10;;
12980;SDS011;6555;50.468;8.480;2022-07-31T11:28:56;1.17;;;1.10;;
12980;SDS011;6555;50.468;8.480;2022-07-31T11:34:19;1.30;;;1.20;;
12980;SDS011;6555;50.468;8.480;2022-07-31T11:39:23;1.33;;;1.23;;
12980;SDS011;6555;50.468;8.480;2022-07-31T11:44:37;1.55;;;1.30;;
12980;SDS011;6555;50.468;8.480;2022-07-31T11:49:41;1.40;;;1.30;;
12980;SDS011;6555;50.468;8.480;2022-07-31T11:55:01;1.30;;;1.20;;
12980;SDS011;6555;50.468;8.480;2022-07-31T12:00:10;1.20;;;1.10;;
12980;SDS011;6555;50.468;8.480;2022-07-31T12:05:29;0.90;;;0.90;;
12980;SDS011;6555;50.468;8.480;2022-07-31T12:10:41;1.10;;;0.98;;
12980;SDS011;6555;50.468;8.480;2022-07-31T12:15:54;1.48;;;1.20;;
12980;SDS011;6555;50.468;8.480;2022-07-31T12:21:00;1.42;;;1.20;;
12980;SDS011;6555;50.468;8.480;2022-07-31T12:26:05;1.10;;;1.00;;
12980;SDS011;6555;50.468;8.480;2022-07-31T12:31:09;1.05;;;1.05;;
12980;SDS011;6555;50.468;8.480;2022-07-31T12:36:12;3.40;;;1.15;;
12980;SDS011;6555;50.468;8.480;2022-07-31T12:41:18;1.27;;;1.20;;
12980;SDS011;6555;50.468;8.480;2022-07-31T12:46:28;1.20;;;1.10;;
12980;SDS011;6555;50.468;8.480;2022-07-31T12:51:37;1.30;;;1.20;;
12980;SDS011;6555;50.468;8.480;2022-07-31T12:56:47;1.30;;;1.20;;
12980;SDS011;6555;50.468;8.480;2022-07-31T13:01:50;1.00;;;1.00;;
12980;SDS011;6555;50.468;8.480;2022-07-31T13:06:53;1.17;;;1.10;;
12980;SDS011;6555;50.468;8.480;2022-07-31T13:11:57;0.98;;;0.98;;
12980;SDS011;6555;50.468;8.480;2022-07-31T13:17:00;2.53;;;1.00;;
12980;SDS011;6555;50.468;8.480;2022-07-31T13:22:04;1.45;;;1.20;;
12980;SDS011;6555;50.468;8.480;2022-07-31T13:27:08;3.35;;;1.13;;
12980;SDS011;6555;50.468;8.480;2022-07-31T13:32:11;1.10;;;1.00;;
12980;SDS011;6555;50.468;8.480;2022-07-31T13:37:15;1.15;;;1.08;;
12980;SDS011;6555;50.468;8.480;2022-07-31T13:42:19;1.45;;;1.35;;
12980;SDS011;6555;50.468;8.480;2022-07-31T13:47:29;1.42;;;1.33;;
12980;SDS011;6555;50.468;8.480;2022-07-31T13:52:52;2.03;;;1.63;;
12980;SDS011;6555;50.468;8.480;2022-07-31T13:57:56;2.40;;;2.15;;
12980;SDS011;6555;50.468;8.480;2022-07-31T14:03:01;2.53;;;1.80;;
12980;SDS011;6555;50.468;8.480;2022-07-31T14:08:05;2.60;;;1.88;;
12980;SDS011;6555;50.468;8.480;2022-07-31T14:13:29;1.55;;;1.45;;
12980;SDS011;6555;50.468;8.480;2022-07-31T14:18:32;1.20;;;1.10;;
12980;SDS011;6555;50.468;8.480;2022-07-31T14:23:35;2.63;;;1.15;;
12980;SDS011;6555;50.468;8.480;2022-07-31T14:28:42;1.23;;;1.10;;
12980;SDS011;6555;50.468;8.480;2022-07-31T14:33:45;1.00;;;1.00;;
12980;SDS011;6555;50.468;8.480;2022-07-31T14:38:48;1.00;;;1.00;;
12980;SDS011;6555;50.468;8.480;2022-07-31T14:43:52;1.30;;;1.20;;
12980;SDS011;6555;50.468;8.480;2022-07-31T14:48:55;1.20;;;1.10;;
12980;SDS011;6555;50.468;8.480;2022-07-31T14:53:58;1.30;;;1.20;;
12980;SDS011;6555;50.468;8.480;2022-07-31T14:59:02;0.90;;;0.90;;
12980;SDS011;6555;50.468;8.480;2022-07-31T15:04:05;1.00;;;1.00;;
12980;SDS011;6555;50.468;8.480;2022-07-31T15:09:09;1.38;;;1.27;;
12980;SDS011;6555;50.468;8.480;2022-07-31T15:14:13;1.70;;;1.60;;
12980;SDS011;6555;50.468;8.480;2022-07-31T15:19:16;1.90;;;1.80;;
12980;SDS011;6555;50.468;8.480;2022-07-31T15:24:19;1.77;;;1.52;;
12980;SDS011;6555;50.468;8.480;2022-07-31T15:29:23;1.20;;;1.17;;
12980;SDS011;6555;50.468;8.480;2022-07-31T15:34:46;1.63;;;1.52;;
12980;SDS011;6555;50.468;8.480;2022-07-31T15:39:49;1.30;;;1.20;;
12980;SDS011;6555;50.468;8.480;2022-07-31T15:45:06;1.50;;;1.40;;
12980;SDS011;6555;50.468;8.480;2022-07-31T15:50:12;1.20;;;1.10;;
12980;SDS011;6555;50.468;8.480;2022-07-31T15:55:16;1.30;;;1.20;;
12980;SDS011;6555;50.468;8.480;2022-07-31T16:00:20;1.98;;;1.30;;
12980;SDS011;6555;50.468;8.480;2022-07-31T16:05:24;2.75;;;1.40;;
12980;SDS011;6555;50.468;8.480;2022-07-31T16:10:37;1.20;;;1.10;;
12980;SDS011;6555;50.468;8.480;2022-07-31T16:15:41;1.23;;;1.13;;
12980;SDS011;6555;50.468;8.480;2022-07-31T16:20:44;1.20;;;1.10;;
12980;SDS011;6555;50.468;8.480;2022-07-31T16:25:47;1.30;;;1.20;;
12980;SDS011;6555;50.468;8.480;2022-07-31T16:30:52;1.30;;;1.20;;
12980;SDS011;6555;50.468;8.480;2022-07-31T16:35:55;1.33;;;1.23;;
12980;SDS011;6555;50.468;8.480;2022-07-31T16:40:58;1.10;;;1.10;;
12980;SDS011;6555;50.468;8.480;2022-07-31T16:46:02;0.93;;;0.93;;
12980;SDS011;6555;50.468;8.480;2022-07-31T16:51:06;1.00;;;1.00;;
12980;SDS011;6555;50.468;8.480;2022-07-31T16:56:09;0.90;;;0.90;;
12980;SDS011;6555;50.468;8.480;2022-07-31T17:01:14;0.82;;;0.82;;
12980;SDS011;6555;50.468;8.480;2022-07-31T17:06:37;1.10;;;1.00;;
12980;SDS011;6555;50.468;8.480;2022-07-31T17:11:40;0.80;;;0.80;;
12980;SDS011;6555;50.468;8.480;2022-07-31T17:16:46;1.15;;;1.10;;
12980;SDS011;6555;50.468;8.480;2022-07-31T17:21:50;1.27;;;1.17;;
12980;SDS011;6555;50.468;8.480;2022-07-31T17:26:53;1.00;;;1.00;;
12980;SDS011;6555;50.468;8.480;2022-07-31T17:31:58;1.02;;;1.02;;
12980;SDS011;6555;50.468;8.480;2022-07-31T17:37:01;1.08;;;1.08;;
12980;SDS011;6555;50.468;8.480;2022-07-31T17:42:05;1.15;;;1.10;;
12980;SDS011;6555;50.468;8.480;2022-07-31T17:47:11;0.98;;;0.98;;
12980;SDS011;6555;50.468;8.480;2022-07-31T17:52:14;1.42;;;1.33;;
12980;SDS011;6555;50.468;8.480;2022-07-31T17:57:18;0.90;;;0.90;;
12980;SDS011;6555;50.468;8.480;2022-07-31T18:02:25;0.75;;;0.75;;
12980;SDS011;6555;50.468;8.480;2022-07-31T18:07:28;1.27;;;1.02;;
12980;SDS011;6555;50.468;8.480;2022-07-31T18:12:31;0.77;;;0.77;;
12980;SDS011;6555;50.468;8.480;2022-07-31T18:17:56;1.17;;;1.05;;
12980;SDS011;6555;50.468;8.480;2022-07-31T18:23:00;1.10;;;1.00;;
12980;SDS011;6555;50.468;8.480;2022-07-31T18:28:03;0.70;;;0.70;;
12980;SDS011;6555;50.468;8.480;2022-07-31T18:33:08;0.68;;;0.68;;
12980;SDS011;6555;50.468;8.480;2022-07-31T18:38:13;0.80;;;0.80;;
12980;SDS011;6555;50.468;8.480;2022-07-31T18:43:16;0.82;;;0.82;;
12980;SDS011;6555;50.468;8.480;2022-07-31T18:48:20;0.52;;;0.52;;
12980;SDS011;6555;50.468;8.480;2022-07-31T18:53:23;1.00;;;0.90;;
12980;SDS011;6555;50.468;8.480;2022-07-31T18:58:26;2.03;;;0.88;;
12980;SDS011;6555;50.468;8.480;2022-07-31T19:03:30;1.02;;;1.00;;
12980;SDS011;6555;50.468;8.480;2022-07-31T19:08:33;1.23;;;1.00;;
12980;SDS011;6555;50.468;8.480;2022-07-31T19:13:36;2.10;;;1.02;;
12980;SDS011;6555;50.468;8.480;2022-07-31T19:18:40;2.55;;;1.42;;
12980;SDS011;6555;50.468;8.480;2022-07-31T19:23:44;1.08;;;0.95;;
12980;SDS011;6555;50.468;8.480;2022-07-31T19:28:47;1.02;;;0.98;;
12980;SDS011;6555;50.468;8.480;2022-07-31T19:33:51;1.73;;;1.30;;
12980;SDS011;6555;50.468;8.480;2022-07-31T19:38:54;1.10;;;1.00;;
12980;SDS011;6555;50.468;8.480;2022-07-31T19:43:57;1.08;;;0.98;;
12980;SDS011;6555;50.468;8.480;2022-07-31T19:49:02;0.90;;;0.90;;
12980;SDS011;6555;50.468;8.480;2022-07-31T19:54:05;0.82;;;0.82;;
12980;SDS011;6555;50.468;8.480;2022-07-31T19:59:12;0.98;;;0.93;;
12980;SDS011;6555;50.468;8.480;2022-07-31T20:04:17;0.90;;;0.90;;
12980;SDS011;6555;50.468;8.480;2022-07-31T20:09:21;0.90;;;0.90;;
12980;SDS011;6555;50.468;8.480;2022-07-31T20:14:24;0.90;;;0.90;;
12980;SDS011;6555;50.468;8.480;2022-07-31T20:19:28;0.80;;;0.80;;
12980;SDS011;6555;50.468;8.480;2022-07-31T20:24:31;1.02;;;0.90;;
12980;SDS011;6555;50.468;8.480;2022-07-31T20:29:34;0.65;;;0.65;;
12980;SDS011;6555;50.468;8.480;2022-07-31T20:34:39;0.90;;;0.90;;
12980;SDS011;6555;50.468;8.480;2022-07-31T20:39:42;1.38;;;1.00;;
12980;SDS011;6555;50.468;8.480;2022-07-31T20:44:45;0.93;;;0.90;;
12980;SDS011;6555;50.468;8.480;2022-07-31T20:49:49;0.95;;;0.90;;
12980;SDS011;6555;50.468;8.480;2022-07-31T20:54:52;0.77;;;0.73;;
12980;SDS011;6555;50.468;8.480;2022-07-31T20:59:55;0.80;;;0.80;;
12980;SDS011;6555;50.468;8.480;2022-07-31T21:05:00;0.80;;;0.80;;
12980;SDS011;6555;50.468;8.480;2022-07-31T21:10:03;0.70;;;0.70;;
12980;SDS011;6555;50.468;8.480;2022-07-31T21:15:07;0.90;;;0.90;;
12980;SDS011;6555;50.468;8.480;2022-07-31T21:20:33;1.05;;;0.95;;
12980;SDS011;6555;50.468;8.480;2022-07-31T21:25:51;0.70;;;0.70;;
12980;SDS011;6555;50.468;8.480;2022-07-31T21:30:55;0.90;;;0.80;;
12980;SDS011;6555;50.468;8.480;2022-07-31T21:36:00;1.25;;;0.98;;
12980;SDS011;6555;50.468;8.480;2022-07-31T21:41:03;1.05;;;0.95;;
12980;SDS011;6555;50.468;8.480;2022-07-31T21:46:07;1.02;;;0.93;;
12980;SDS011;6555;50.468;8.480;2022-07-31T21:51:15;0.93;;;0.88;;
12980;SDS011;6555;50.468;8.480;2022-07-31T21:56:18;1.20;;;1.10;;
12980;SDS011;6555;50.468;8.480;2022-07-31T22:01:21;1.02;;;0.93;;
12980;SDS011;6555;50.468;8.480;2022-07-31T22:06:26;0.75;;;0.75;;
12980;SDS011;6555;50.468;8.480;2022-07-31T22:11:46;0.65;;;0.65;;
12980;SDS011;6555;50.468;8.480;2022-07-31T22:17:02;2.35;;;0.90;;
12980;SDS011;6555;50.468;8.480;2022-07-31T22:22:06;0.80;;;0.80;;
12980;SDS011;6555;50.468;8.480;2022-07-31T22:27:10;0.73;;;0.73;;
12980;SDS011;6555;50.468;8.480;2022-07-31T22:32:32;0.85;;;0.80;;
12980;SDS011;6555;50.468;8.480;2022-07-31T22:37:37;0.65;;;0.65;;
12980;SDS011;6555;50.468;8.480;2022-07-31T22:42:40;1.02;;;1.00;;
12980;SDS011;6555;50.468;8.480;2022-07-31T22:47:56;0.73;;;0.73;;
12980;SDS011;6555;50.468;8.480;2022-07-31T22:53:01;1.13;;;1.02;;
12980;SDS011;6555;50.468;8.480;2022-07-31T22:58:04;0.80;;;0.77;;
12980;SDS011;6555;50.468;8.480;2022-07-31T23:03:10;1.00;;;0.90;;
12980;SDS011;6555;50.468;8.480;2022-07-31T23:08:15;1.00;;;0.90;;
12980;SDS011;6555;50.468;8.480;2022-07-31T23:13:18;0.77;;;0.77;;
12980;SDS011;6555;50.468;8.480;2022-07-31T23:18:21;0.70;;;0.70;;
12980;SDS011;6555;50.468;8.480;2022-07-31T23:23:25;0.82;;;0.80;;
12980;SDS011;6555;50.468;8.480;2022-07-31T23:28:28;3.55;;;0.85;;
12980;SDS011;6555;50.468;8.480;2022-07-31T23:33:31;0.80;;;0.55;;
12980;SDS011;6555;50.468;8.480;2022-07-31T23:38:36;0.63;;;0.63;;
12980;SDS011;6555;50.468;8.480;2022-07-31T23:43:39;0.68;;;0.68;;
12980;SDS011;6555;50.468;8.480;2022-07-31T23:48:55;0.60;;;0.60;;
12980;SDS011;6555;50.468;8.480;2022-07-31T23:54:00;2.05;;;0.80;;
12980;SDS011;6555;50.468;8.480;2022-07-31T23:59:05;1.40;;;0.60;;
